Time;durP1;ratioP1;P1;durP2;ratioP2;P2;SDS_P1;SDS_P2;PMS_P1;PMS_P2;Temp;Humidity;BMP_temperature;BMP_pressure;BME280_temperature;BME280_humidity;BME280_pressure;Samples;Min_cycle;Max_cycle;Signal;HPM_P1;HPM_P2
2023/10/26 00:01:54;;;;;;;12.50;6.03;;;11.20;99.90;;;;;;5077510;28;20039;-88
2023/10/26 00:04:20;;;;;;;22.85;6.70;;;11.30;99.90;;;;;;5094626;28;20031;-88
2023/10/26 00:06:45;;;;;;;13.75;5.68;;;11.30;99.90;;;;;;5078781;28;20060;-88
2023/10/26 00:09:11;;;;;;;12.57;7.18;;;11.30;99.90;;;;;;5079547;28;20036;-88
2023/10/26 00:11:36;;;;;;;11.30;5.93;;;11.20;99.90;;;;;;5086393;28;20051;-88
2023/10/26 00:14:02;;;;;;;11.95;6.00;;;11.20;99.90;;;;;;5078014;28;20036;-88
2023/10/26 00:16:28;;;;;;;15.68;7.57;;;11.20;99.90;;;;;;5077885;28;20040;-88
2023/10/26 00:18:54;;;;;;;12.02;5.55;;;11.20;99.90;;;;;;5094791;28;20075;-88
2023/10/26 00:21:20;;;;;;;11.73;5.13;;;11.20;99.90;;;;;;5094509;28;20040;-88
2023/10/26 00:23:46;;;;;;;13.65;6.70;;;11.20;99.90;;;;;;5077670;28;20505;-88
2023/10/26 00:26:12;;;;;;;12.93;6.80;;;11.30;99.90;;;;;;5094191;28;20040;-87
2023/10/26 00:28:37;;;;;;;10.23;5.93;;;11.20;99.90;;;;;;5094722;28;20040;-88
2023/10/26 00:31:03;;;;;;;16.50;14.75;;;11.20;99.90;;;;;;5077681;28;20110;-88
2023/10/26 00:33:29;;;;;;;11.70;6.32;;;11.30;99.90;;;;;;5078021;28;20044;-88
2023/10/26 00:35:55;;;;;;;11.75;6.03;;;11.30;99.90;;;;;;5077378;28;20491;-88
2023/10/26 00:38:21;;;;;;;11.45;5.97;;;11.20;99.90;;;;;;5077341;28;20085;-88
2023/10/26 00:40:46;;;;;;;12.75;6.13;;;11.20;99.90;;;;;;5077543;28;20440;-88
2023/10/26 00:43:20;;;;;;;14.60;6.43;;;11.20;99.90;;;;;;5077476;28;20486;-88
2023/10/26 00:45:49;;;;;;;11.00;6.00;;;11.10;99.90;;;;;;5077584;28;20395;-88
2023/10/26 00:48:15;;;;;;;16.52;14.75;;;11.10;99.90;;;;;;5077550;28;20521;-88
2023/10/26 00:50:41;;;;;;;14.32;7.13;;;11.20;99.90;;;;;;5077114;28;20039;-88
2023/10/26 00:53:09;;;;;;;12.20;6.13;;;11.20;99.90;;;;;;5077570;28;20040;-88
2023/10/26 00:55:35;;;;;;;12.18;5.50;;;11.10;99.90;;;;;;5094104;28;20115;-88
2023/10/26 00:58:01;;;;;;;14.38;7.38;;;11.10;99.90;;;;;;5076394;28;20110;-88
2023/10/26 01:00:27;;;;;;;12.90;8.07;;;11.10;99.90;;;;;;5092499;28;20040;-88
2023/10/26 01:02:54;;;;;;;14.00;6.82;;;11.10;99.90;;;;;;5076262;28;20046;-88
2023/10/26 01:05:19;;;;;;;11.80;7.28;;;11.10;99.90;;;;;;5093057;28;20045;-88
2023/10/26 01:07:45;;;;;;;16.98;7.88;;;11.10;99.90;;;;;;5076604;28;20114;-88
2023/10/26 01:10:11;;;;;;;22.27;20.13;;;11.10;99.90;;;;;;5093524;28;20040;-88
2023/10/26 01:12:37;;;;;;;13.30;7.85;;;11.20;99.90;;;;;;5084820;28;20096;-88
2023/10/26 01:15:03;;;;;;;16.17;7.88;;;11.10;99.90;;;;;;5094276;28;20035;-88
2023/10/26 01:17:29;;;;;;;18.27;8.55;;;11.10;99.90;;;;;;5076551;28;20039;-88
2023/10/26 01:19:55;;;;;;;16.30;9.05;;;11.10;99.90;;;;;;5076703;28;20051;-88
2023/10/26 01:22:28;;;;;;;14.77;7.95;;;11.10;99.90;;;;;;5093946;28;20039;-88
2023/10/26 01:24:53;;;;;;;;;;;11.10;99.90;;;;;;5094276;28;20047;-88
2023/10/26 01:27:20;;;;;;;16.67;9.23;;;11.10;99.90;;;;;;5076550;28;20008;-88
2023/10/26 01:29:45;;;;;;;14.15;7.63;;;11.10;99.90;;;;;;5076750;28;20522;-88
2023/10/26 01:32:11;;;;;;;12.88;7.50;;;11.10;99.90;;;;;;5093869;28;20043;-87
2023/10/26 01:34:37;;;;;;;20.20;8.90;;;11.10;99.90;;;;;;5093783;28;20032;-88
2023/10/26 01:37:05;;;;;;;18.00;9.80;;;11.10;99.90;;;;;;5094004;28;20035;-88
2023/10/26 01:39:32;;;;;;;16.17;9.90;;;11.10;99.90;;;;;;5077178;28;20245;-87
2023/10/26 01:41:57;;;;;;;19.45;9.63;;;11.10;99.90;;;;;;5093517;28;20039;-88
2023/10/26 01:44:23;;;;;;;25.27;22.67;;;11.10;99.90;;;;;;5093538;28;20043;-87
2023/10/26 01:46:48;;;;;;;17.35;10.45;;;11.20;99.90;;;;;;5093557;28;20414;-87
2023/10/26 01:49:14;;;;;;;17.25;10.85;;;11.20;99.90;;;;;;5076678;28;20102;-88
2023/10/26 01:51:40;;;;;;;16.85;10.98;;;11.20;99.90;;;;;;5093803;28;20050;-88
2023/10/26 01:54:05;;;;;;;18.55;9.45;;;11.10;99.90;;;;;;5093068;28;20039;-88
2023/10/26 01:56:31;;;;;;;19.20;10.27;;;11.20;99.90;;;;;;5093153;28;20070;-88
2023/10/26 01:58:57;;;;;;;16.80;10.73;;;11.20;99.90;;;;;;5076096;28;20062;-88
2023/10/26 02:01:24;;;;;;;17.33;9.57;;;11.10;99.90;;;;;;5097456;28;20066;-88
2023/10/26 02:03:50;;;;;;;23.58;11.63;;;11.10;99.90;;;;;;5097820;28;20110;-88
2023/10/26 02:06:15;;;;;;;15.38;9.32;;;11.10;99.90;;;;;;5097612;28;20181;-88
2023/10/26 02:08:41;;;;;;;17.27;10.70;;;11.10;99.90;;;;;;5080282;28;20578;-88
2023/10/26 02:11:07;;;;;;;20.85;10.95;;;11.10;99.90;;;;;;5080669;28;20036;-88
2023/10/26 02:13:35;;;;;;;16.38;10.60;;;11.10;99.90;;;;;;5080444;28;20074;-88
2023/10/26 02:16:01;;;;;;;21.90;11.18;;;11.10;99.90;;;;;;5097188;28;20502;-87
2023/10/26 02:18:28;;;;;;;20.65;12.27;;;11.10;99.90;;;;;;5097153;28;20127;-88
2023/10/26 02:20:54;;;;;;;19.92;11.48;;;11.10;99.90;;;;;;5080183;28;20046;-88
2023/10/26 02:23:21;;;;;;;18.52;11.50;;;11.10;99.90;;;;;;5080320;28;20477;-88
2023/10/26 02:25:46;;;;;;;24.20;12.00;;;11.10;99.90;;;;;;5087000;28;20122;-88
2023/10/26 02:28:15;;;;;;;19.88;12.95;;;11.00;99.90;;;;;;5084593;28;20123;-87
2023/10/26 02:30:45;;;;;;;18.52;11.35;;;11.00;99.90;;;;;;5080106;28;20041;-87
2023/10/26 02:33:11;;;;;;;22.02;11.30;;;11.00;99.90;;;;;;5097961;28;20122;-87
2023/10/26 02:35:40;;;;;;;20.85;12.30;;;11.00;99.90;;;;;;5098256;28;20070;-88
2023/10/26 02:38:06;;;;;;;18.85;11.38;;;11.00;99.90;;;;;;5097692;28;20108;-87
2023/10/26 02:40:32;;;;;;;23.45;12.63;;;11.00;99.90;;;;;;5102296;28;20530;-87
2023/10/26 02:42:59;;;;;;;21.67;14.20;;;11.00;99.90;;;;;;5079661;28;20387;-88
2023/10/26 02:45:25;;;;;;;20.75;12.00;;;11.00;99.90;;;;;;5080027;28;20035;-88
2023/10/26 02:47:51;;;;;;;33.63;30.40;;;11.00;99.90;;;;;;5096934;28;20043;-87
2023/10/26 02:50:16;;;;;;;21.05;12.07;;;11.10;99.90;;;;;;5079541;28;20094;-87
2023/10/26 02:52:42;;;;;;;21.75;13.20;;;11.10;99.90;;;;;;5079933;28;20036;-87
2023/10/26 02:55:08;;;;;;;19.30;11.23;;;11.10;99.90;;;;;;5096117;28;20051;-87
2023/10/26 02:57:33;;;;;;;20.98;11.93;;;11.10;99.90;;;;;;5104770;28;20446;-87
2023/10/26 02:59:59;;;;;;;22.95;12.90;;;11.10;99.90;;;;;;5096256;28;20035;-87
2023/10/26 03:02:25;;;;;;;24.25;13.02;;;11.10;99.90;;;;;;5096749;28;20047;-88
2023/10/26 03:04:50;;;;;;;28.67;12.85;;;11.10;99.90;;;;;;5096480;28;20042;-88
2023/10/26 03:07:22;;;;;;;37.60;33.90;;;11.10;99.90;;;;;;5096111;28;20043;-88
2023/10/26 03:09:51;;;;;;;21.58;13.02;;;11.20;99.90;;;;;;5096366;28;20036;-87
2023/10/26 03:12:19;;;;;;;36.78;33.25;;;11.20;99.90;;;;;;5095091;28;20533;-88
2023/10/26 03:14:45;;;;;;;28.23;15.48;;;11.20;99.90;;;;;;5095916;28;20032;-87
2023/10/26 03:17:15;;;;;;;20.15;12.45;;;11.20;99.90;;;;;;5095460;28;20041;-87
2023/10/26 03:19:41;;;;;;;26.25;14.98;;;11.20;99.90;;;;;;5096204;28;20047;-87
2023/10/26 03:22:07;;;;;;;24.02;14.05;;;11.10;99.90;;;;;;5096126;28;20043;-88
2023/10/26 03:24:32;;;;;;;25.95;14.65;;;11.10;99.90;;;;;;5095998;28;20115;-88
2023/10/26 03:26:58;;;;;;;26.27;15.95;;;11.10;99.90;;;;;;5096253;28;20039;-87
2023/10/26 03:29:24;;;;;;;28.10;14.02;;;11.10;99.90;;;;;;5079141;28;20678;-88
2023/10/26 03:31:51;;;;;;;24.85;14.63;;;11.10;99.90;;;;;;5079189;28;20043;-88
2023/10/26 03:34:17;;;;;;;39.45;35.47;;;11.10;99.90;;;;;;5095738;28;20499;-87
2023/10/26 03:36:42;;;;;;;42.25;38.15;;;11.20;99.90;;;;;;5095866;28;20043;-88
2023/10/26 03:39:08;;;;;;;25.13;14.75;;;11.30;99.90;;;;;;5079104;28;20039;-88
2023/10/26 03:41:33;;;;;;;24.58;14.88;;;11.20;99.90;;;;;;5095688;28;20168;-88
2023/10/26 03:43:59;;;;;;;24.73;14.02;;;11.20;99.90;;;;;;5079023;28;20047;-88
2023/10/26 03:46:25;;;;;;;25.42;14.57;;;11.10;99.90;;;;;;5095413;28;20051;-88
2023/10/26 03:48:50;;;;;;;25.08;14.75;;;11.10;99.90;;;;;;5078800;28;20028;-88
2023/10/26 03:51:16;;;;;;;25.20;14.98;;;11.10;99.90;;;;;;5078702;28;20040;-88
2023/10/26 03:53:42;;;;;;;24.60;14.75;;;11.10;99.90;;;;;;5078453;28;20051;-88
2023/10/26 03:56:08;;;;;;;24.33;14.27;;;11.10;99.90;;;;;;5095358;28;20035;-88
2023/10/26 03:58:34;;;;;;;25.70;14.60;;;11.10;99.90;;;;;;5078402;28;20040;-87
2023/10/26 04:01:00;;;;;;;22.10;13.20;;;11.10;99.90;;;;;;5095275;28;20040;-86
2023/10/26 04:03:27;;;;;;;27.90;13.57;;;11.10;99.90;;;;;;5078590;28;20086;-86
2023/10/26 04:05:53;;;;;;;38.55;34.95;;;11.10;99.90;;;;;;5077942;28;20075;-88
2023/10/26 04:08:18;;;;;;;38.08;34.35;;;11.20;99.90;;;;;;5094857;28;20039;-88
2023/10/26 04:10:44;;;;;;;27.05;14.38;;;11.20;99.90;;;;;;5079183;28;20042;-87
2023/10/26 04:13:09;;;;;;;24.10;12.13;;;11.20;99.90;;;;;;5082124;28;20036;-87
2023/10/26 04:15:35;;;;;;;22.10;13.82;;;11.10;99.90;;;;;;5077954;28;20387;-87
2023/10/26 04:18:05;;;;;;;23.35;13.68;;;11.10;99.90;;;;;;5094133;28;20410;-88
2023/10/26 04:20:31;;;;;;;24.58;13.73;;;11.10;99.90;;;;;;5077353;28;20027;-87
2023/10/26 04:22:56;;;;;;;22.85;12.85;;;11.10;99.90;;;;;;5076583;28;20134;-87
2023/10/26 04:25:22;;;;;;;25.85;15.05;;;11.10;99.90;;;;;;5077426;28;20032;-88
2023/10/26 04:27:48;;;;;;;26.17;14.35;;;11.10;99.90;;;;;;5077584;28;20093;-88
2023/10/26 04:30:14;;;;;;;35.58;32.17;;;11.00;99.90;;;;;;5077842;28;20039;-88
2023/10/26 04:32:42;;;;;;;22.98;13.45;;;11.10;99.90;;;;;;5077857;28;20050;-88
2023/10/26 04:35:08;;;;;;;22.60;12.45;;;11.10;99.90;;;;;;5077744;28;20433;-88
2023/10/26 04:37:33;;;;;;;23.08;12.57;;;11.10;99.90;;;;;;5077290;28;20511;-88
2023/10/26 04:39:59;;;;;;;20.10;10.95;;;11.00;99.90;;;;;;5094995;28;20043;-87
2023/10/26 04:42:25;;;;;;;24.23;13.10;;;11.00;99.90;;;;;;5094696;28;20078;-88
2023/10/26 04:44:50;;;;;;;35.97;32.53;;;11.00;99.90;;;;;;5077923;28;20036;-88
2023/10/26 04:47:16;;;;;;;21.55;12.77;;;11.10;99.90;;;;;;5077414;28;20611;-88
2023/10/26 04:49:42;;;;;;;36.20;32.75;;;11.10;99.90;;;;;;5077561;28;20032;-88
2023/10/26 04:52:09;;;;;;;37.85;34.25;;;11.10;99.90;;;;;;5081619;28;20501;-88
2023/10/26 04:54:34;;;;;;;21.58;12.23;;;11.20;99.90;;;;;;5077424;28;20039;-88
2023/10/26 04:57:00;;;;;;;23.08;12.25;;;11.10;99.90;;;;;;5078465;28;20050;-88
2023/10/26 04:59:25;;;;;;;25.38;12.45;;;11.10;99.90;;;;;;5078050;28;20410;-88
2023/10/26 05:01:51;;;;;;;22.50;14.13;;;11.00;99.90;;;;;;5094919;28;20076;-88
2023/10/26 05:04:17;;;;;;;25.73;13.35;;;11.00;99.90;;;;;;5077255;28;20040;-87
2023/10/26 05:06:43;;;;;;;22.83;13.73;;;11.00;99.90;;;;;;5094075;28;20062;-88
2023/10/26 05:09:08;;;;;;;25.60;14.13;;;11.00;99.90;;;;;;5093884;28;20122;-87
2023/10/26 05:11:34;;;;;;;21.67;12.82;;;11.00;99.90;;;;;;5094085;28;20118;-87
2023/10/26 05:14:02;;;;;;;26.58;13.85;;;10.90;99.90;;;;;;5094117;28;20040;-87
2023/10/26 05:16:28;;;;;;;24.90;14.43;;;10.90;99.90;;;;;;5076685;28;20032;-87
2023/10/26 05:18:54;;;;;;;23.90;14.82;;;10.90;99.90;;;;;;5077013;28;20571;-88
2023/10/26 05:21:19;;;;;;;24.83;14.50;;;10.90;99.90;;;;;;5093044;28;20122;-87
2023/10/26 05:23:47;;;;;;;24.67;13.02;;;10.90;99.90;;;;;;5092316;28;20100;-87
2023/10/26 05:26:12;;;;;;;23.20;14.10;;;10.90;99.90;;;;;;5076975;28;20043;-88
2023/10/26 05:28:38;;;;;;;23.23;13.73;;;10.90;99.90;;;;;;5076926;28;20514;-87
2023/10/26 05:31:04;;;;;;;22.85;14.00;;;10.90;99.90;;;;;;5077063;28;20047;-87
2023/10/26 05:33:29;;;;;;;36.78;33.28;;;10.90;99.90;;;;;;5093125;28;20042;-87
2023/10/26 05:35:55;;;;;;;27.23;14.77;;;10.90;99.90;;;;;;5076517;28;20529;-87
2023/10/26 05:38:21;;;;;;;24.85;14.50;;;11.00;99.90;;;;;;5093921;28;20039;-87
2023/10/26 05:40:56;;;;;;;23.95;14.40;;;10.90;99.90;;;;;;5092603;28;20510;-87
2023/10/26 05:43:23;;;;;;;24.40;12.50;;;10.80;99.90;;;;;;5092405;28;20035;-90
2023/10/26 05:45:48;;;;;;;22.60;13.20;;;10.80;99.90;;;;;;5093008;28;20082;-88
2023/10/26 05:48:16;;;;;;;22.92;13.43;;;10.80;99.90;;;;;;5075965;28;20535;-88
2023/10/26 05:50:42;;;;;;;26.10;13.55;;;10.80;99.90;;;;;;5076182;28;20037;-89
2023/10/26 05:53:09;;;;;;;22.05;12.80;;;10.80;99.90;;;;;;5077181;28;20498;-90
2023/10/26 05:55:35;;;;;;;22.52;13.43;;;10.80;99.90;;;;;;5093766;28;20407;-88
2023/10/26 05:58:02;;;;;;;25.75;14.50;;;10.80;99.90;;;;;;5093420;28;20050;-88
2023/10/26 06:00:27;;;;;;;23.25;12.90;;;10.80;99.90;;;;;;5105572;28;20446;-88
2023/10/26 06:02:53;;;;;;;19.85;10.80;;;10.70;99.90;;;;;;5101461;28;20124;-88
2023/10/26 06:05:19;;;;;;;23.48;13.32;;;10.70;99.90;;;;;;5076221;28;20043;-89
2023/10/26 06:07:44;;;;;;;22.60;11.95;;;10.70;99.90;;;;;;5092663;28;20039;-88
2023/10/26 06:10:11;;;;;;;20.38;11.93;;;10.60;99.90;;;;;;5076678;28;20494;-88
2023/10/26 06:12:37;;;;;;;21.48;12.77;;;10.60;99.90;;;;;;5076130;28;20039;-88
2023/10/26 06:15:03;;;;;;;35.25;31.85;;;10.60;99.90;;;;;;5092782;28;20567;-88
2023/10/26 06:17:29;;;;;;;23.38;12.27;;;10.70;99.90;;;;;;5075612;28;20135;-88
2023/10/26 06:19:54;;;;;;;19.83;10.88;;;10.70;99.90;;;;;;5092642;28;20127;-88
2023/10/26 06:22:20;;;;;;;20.88;11.43;;;10.60;99.90;;;;;;5093269;28;20036;-88
2023/10/26 06:24:45;;;;;;;22.23;12.18;;;10.60;99.90;;;;;;5076330;28;20574;-88
2023/10/26 06:27:11;;;;;;;22.38;13.30;;;10.50;99.90;;;;;;5076500;28;20040;-88
2023/10/26 06:29:37;;;;;;;22.70;11.73;;;10.50;99.90;;;;;;5093064;28;20115;-88
2023/10/26 06:32:03;;;;;;;17.95;9.93;;;10.50;99.90;;;;;;5076208;28;20123;-88
2023/10/26 06:34:29;;;;;;;19.65;10.98;;;10.50;99.90;;;;;;5076350;28;20042;-88
2023/10/26 06:36:55;;;;;;;21.08;10.35;;;10.40;99.90;;;;;;5092807;28;20090;-88
2023/10/26 06:39:20;;;;;;;19.30;10.63;;;10.40;99.90;;;;;;5092248;28;20070;-88
2023/10/26 06:41:47;;;;;;;19.13;11.13;;;10.40;99.90;;;;;;5092243;28;20411;-88
2023/10/26 06:44:13;;;;;;;21.30;11.32;;;10.30;99.90;;;;;;5075751;28;20086;-88
2023/10/26 06:46:39;;;;;;;18.85;10.27;;;10.30;99.90;;;;;;5096468;28;20063;-88
2023/10/26 06:49:04;;;;;;;24.67;10.45;;;10.30;99.90;;;;;;5101623;28;20035;-88
2023/10/26 06:51:30;;;;;;;19.95;10.15;;;10.30;99.90;;;;;;5080155;28;20032;-89
2023/10/26 06:53:56;;;;;;;29.90;27.00;;;10.20;99.90;;;;;;5079800;28;20035;-88
2023/10/26 06:56:21;;;;;;;30.88;27.88;;;10.30;99.90;;;;;;5097024;28;20067;-89
2023/10/26 06:58:47;;;;;;;17.98;10.13;;;10.40;99.90;;;;;;5097880;28;20036;-89
2023/10/26 07:01:13;;;;;;;18.58;10.35;;;10.30;99.90;;;;;;5086837;28;20040;-88
2023/10/26 07:03:39;;;;;;;17.13;9.05;;;10.30;99.90;;;;;;5096552;28;20042;-88
2023/10/26 07:06:05;;;;;;;18.13;10.75;;;10.20;99.90;;;;;;5079316;28;20130;-89
2023/10/26 07:08:34;;;;;;;18.77;10.70;;;10.20;99.90;;;;;;5096486;28;20035;-88
2023/10/26 07:11:06;;;;;;;19.77;11.40;;;10.20;99.90;;;;;;5096693;28;20047;-88
2023/10/26 07:13:32;;;;;;;27.20;24.70;;;10.10;99.90;;;;;;5079291;28;20036;-88
2023/10/26 07:15:59;;;;;;;29.17;26.27;;;10.30;99.90;;;;;;5096068;28;20418;-88
2023/10/26 07:18:26;;;;;;;16.00;9.32;;;10.30;99.90;;;;;;5087463;28;20080;-88
2023/10/26 07:20:52;;;;;;;11.25;5.82;;;10.30;99.90;;;;;;5095981;28;20137;-88
2023/10/26 07:23:18;;;;;;;12.60;6.82;;;10.20;99.90;;;;;;5085344;28;20193;-88
2023/10/26 07:25:43;;;;;;;17.52;8.60;;;10.10;99.90;;;;;;5079906;28;20100;-88
2023/10/26 07:28:09;;;;;;;13.40;7.55;;;10.10;99.90;;;;;;5080308;28;20032;-88
2023/10/26 07:30:39;;;;;;;14.60;7.57;;;10.10;99.90;;;;;;5079647;28;20122;-88
2023/10/26 07:33:05;;;;;;;12.75;7.53;;;10.10;99.90;;;;;;5095449;28;20529;-89
2023/10/26 07:35:34;;;;;;;22.13;18.13;;;10.00;99.90;;;;;;5096195;28;20024;-88
2023/10/26 07:37:59;;;;;;;13.73;7.07;;;10.10;99.90;;;;;;5084513;28;20103;-88
2023/10/26 07:40:25;;;;;;;17.40;10.23;;;10.10;99.90;;;;;;5078573;28;20201;-88
2023/10/26 07:42:51;;;;;;;28.55;11.93;;;10.10;99.90;;;;;;5087173;28;20047;-88
2023/10/26 07:45:16;;;;;;;23.52;14.07;;;10.20;99.90;;;;;;5096125;28;20453;-88
2023/10/26 07:47:42;;;;;;;27.70;13.65;;;10.30;99.90;;;;;;5087326;28;20445;-87
2023/10/26 07:50:08;;;;;;;29.02;14.30;;;10.30;99.90;;;;;;5078209;28;20046;-88
2023/10/26 07:52:33;;;;;;;23.67;14.15;;;10.40;99.90;;;;;;5095850;28;20039;-88
2023/10/26 07:54:59;;;;;;;25.10;14.50;;;10.40;99.90;;;;;;5078870;28;20036;-88
2023/10/26 07:57:25;;;;;;;25.20;13.65;;;10.50;99.90;;;;;;5078003;28;20092;-89
2023/10/26 07:59:50;;;;;;;28.67;15.25;;;10.50;99.90;;;;;;5095245;28;20419;-87
2023/10/26 08:02:16;;;;;;;23.75;13.65;;;10.60;99.90;;;;;;5079114;28;20114;-88
2023/10/26 08:04:42;;;;;;;22.73;12.82;;;10.60;99.90;;;;;;5077900;28;20388;-88
2023/10/26 08:07:08;;;;;;;37.83;34.03;;;10.60;99.90;;;;;;5077656;28;20036;-88
2023/10/26 08:09:34;;;;;;;23.13;12.77;;;10.80;99.90;;;;;;5076407;28;20043;-88
2023/10/26 08:11:59;;;;;;;21.20;10.85;;;10.80;99.90;;;;;;5095264;28;20044;-88
2023/10/26 08:14:26;;;;;;;38.92;34.72;;;10.80;99.90;;;;;;5095118;28;20521;-87
2023/10/26 08:16:52;;;;;;;24.85;13.90;;;10.90;99.90;;;;;;5095494;28;20176;-88
2023/10/26 08:19:18;;;;;;;22.63;11.07;;;11.00;99.90;;;;;;5101230;28;20565;-89
2023/10/26 08:21:43;;;;;;;22.70;11.00;;;11.00;99.90;;;;;;5096308;28;20068;-87
2023/10/26 08:24:09;;;;;;;22.48;12.82;;;11.00;99.90;;;;;;5099326;28;20489;-89
2023/10/26 08:26:34;;;;;;;23.50;12.57;;;11.00;99.90;;;;;;5078326;28;20510;-88
2023/10/26 08:29:00;;;;;;;26.60;13.23;;;11.10;99.90;;;;;;5078001;28;20403;-88
2023/10/26 08:31:26;;;;;;;22.63;13.75;;;11.10;99.90;;;;;;5077932;28;20031;-89
2023/10/26 08:33:51;;;;;;;21.65;12.82;;;11.20;99.90;;;;;;5086595;28;20478;-88
2023/10/26 08:36:17;;;;;;;22.30;12.85;;;11.20;99.90;;;;;;5086631;28;20100;-88
2023/10/26 08:38:42;;;;;;;24.23;12.35;;;11.30;99.90;;;;;;5102613;28;20039;-88
2023/10/26 08:41:12;;;;;;;25.27;13.45;;;11.30;99.90;;;;;;5086016;28;20044;-88
2023/10/26 08:43:39;;;;;;;25.42;13.20;;;11.30;99.90;;;;;;5094620;28;20055;-88
2023/10/26 08:46:08;;;;;;;25.98;13.52;;;11.40;99.90;;;;;;5094664;28;20043;-88
2023/10/26 08:48:38;;;;;;;23.23;13.82;;;11.40;99.90;;;;;;5088414;28;20046;-88
2023/10/26 08:51:04;;;;;;;23.20;13.70;;;11.50;99.90;;;;;;5094772;28;20085;-88
2023/10/26 08:53:31;;;;;;;24.23;12.95;;;11.50;99.90;;;;;;5077488;28;20032;-88
2023/10/26 08:55:58;;;;;;;26.75;12.10;;;11.50;99.90;;;;;;5082911;28;20040;-88
2023/10/26 08:58:23;;;;;;;22.83;13.23;;;11.60;99.90;;;;;;5094392;28;20406;-88
2023/10/26 09:00:51;;;;;;;25.85;14.30;;;11.70;99.90;;;;;;5077218;28;20043;-88
2023/10/26 09:03:18;;;;;;;23.27;11.73;;;11.70;99.90;;;;;;5094623;28;20390;-88
2023/10/26 09:05:54;;;;;;;22.88;14.13;;;11.80;99.90;;;;;;5073957;28;20120;-88
2023/10/26 09:08:23;;;;;;;19.55;10.60;;;11.90;99.90;;;;;;5076333;28;20503;-88
2023/10/26 09:10:49;;;;;;;18.45;10.35;;;11.90;99.90;;;;;;5082551;28;20473;-88
2023/10/26 09:13:26;;;;;;;28.58;25.88;;;12.00;99.90;;;;;;5093960;28;20050;-87
2023/10/26 09:15:53;;;;;;;23.33;13.38;;;12.10;99.90;;;;;;5100830;28;20032;-88
2023/10/26 09:18:21;;;;;;;21.27;10.40;;;12.20;99.90;;;;;;5100053;28;20391;-88
2023/10/26 09:21:05;;;;;;;19.90;11.05;;;12.30;99.90;;;;;;5093538;28;20126;-88
2023/10/26 09:23:33;;;;;;;20.08;11.02;;;12.40;99.90;;;;;;5093701;28;20045;-88
2023/10/26 09:26:04;;;;;;;18.83;10.40;;;12.50;99.90;;;;;;5102205;28;20126;-88
2023/10/26 09:28:46;;;;;;;27.73;24.92;;;12.60;99.90;;;;;;5077428;28;20106;-88
2023/10/26 09:31:12;;;;;;;19.45;10.82;;;12.70;99.90;;;;;;5094431;28;20066;-88
2023/10/26 09:33:37;;;;;;;18.35;9.35;;;12.70;99.90;;;;;;5102185;28;20070;-88
2023/10/26 09:36:14;;;;;;;19.42;11.18;;;12.80;99.90;;;;;;5076961;28;20498;-88
2023/10/26 09:38:41;;;;;;;20.98;11.15;;;12.80;99.90;;;;;;5076693;28;20078;-88
2023/10/26 09:41:10;;;;;;;22.65;14.02;;;12.80;99.90;;;;;;5076969;28;20613;-88
2023/10/26 09:43:36;;;;;;;16.73;9.80;;;12.80;99.90;;;;;;5101755;28;20036;-88
2023/10/26 09:46:02;;;;;;;25.63;22.92;;;12.90;99.90;;;;;;5093617;28;20027;-88
2023/10/26 09:48:28;;;;;;;18.70;12.23;;;13.10;99.90;;;;;;5093409;28;20074;-89
2023/10/26 09:50:54;;;;;;;23.92;21.50;;;13.20;99.90;;;;;;5076643;28;20138;-88
2023/10/26 09:53:23;;;;;;;20.02;10.07;;;13.40;99.90;;;;;;5076423;28;20443;-88
2023/10/26 09:55:50;;;;;;;17.17;10.73;;;13.40;99.90;;;;;;5076492;28;20031;-88
2023/10/26 09:58:17;;;;;;;22.27;20.00;;;13.40;99.90;;;;;;5084423;28;20042;-88
2023/10/26 10:00:42;;;;;;;20.92;11.13;;;13.40;99.90;;;;;;5094018;28;20084;-88
2023/10/26 10:03:12;;;;;;;18.73;10.18;;;13.40;99.90;;;;;;5077204;28;20082;-88
2023/10/26 10:05:41;;;;;;;22.38;19.42;;;13.40;99.90;;;;;;5094336;28;20498;-88
2023/10/26 10:08:07;;;;;;;19.58;11.02;;;13.40;99.90;;;;;;5084862;28;20143;-88
2023/10/26 10:10:33;;;;;;;16.63;11.05;;;13.40;99.90;;;;;;5076071;28;20466;-89
2023/10/26 10:12:59;;;;;;;19.42;11.57;;;13.30;99.90;;;;;;5076384;28;20088;-88
2023/10/26 10:15:38;;;;;;;18.42;9.70;;;13.20;99.90;;;;;;5101882;28;20039;-88
2023/10/26 10:18:05;;;;;;;19.98;10.25;;;13.20;99.90;;;;;;5076487;28;20046;-89
2023/10/26 10:20:33;;;;;;;16.90;11.82;;;13.20;99.90;;;;;;5077603;28;20044;-88
2023/10/26 10:23:00;;;;;;;21.23;19.13;;;13.30;99.90;;;;;;5097044;28;20066;-88
2023/10/26 10:25:50;;;;;;;23.80;21.25;;;13.40;99.90;;;;;;5097084;28;20062;-88
2023/10/26 10:28:18;;;;;;;23.13;11.18;;;13.60;99.90;;;;;;5102719;28;20462;-88
2023/10/26 10:30:59;;;;;;;18.15;8.85;;;13.70;99.90;;;;;;5096706;28;20498;-89
2023/10/26 10:33:27;;;;;;;16.95;10.73;;;13.80;99.90;;;;;;5079863;28;20082;-89
2023/10/26 10:36:06;;;;;;;18.00;10.73;;;13.90;99.90;;;;;;5099422;28;20099;-89
2023/10/26 10:38:32;;;;;;;20.58;18.38;;;14.10;99.90;;;;;;5096735;28;20078;-89
2023/10/26 10:41:04;;;;;;;16.00;9.75;;;14.30;99.90;;;;;;5105184;28;20044;-88
2023/10/26 10:43:30;;;;;;;;;;;14.30;99.90;;;;;;5080546;28;20068;-89
2023/10/26 10:45:56;;;;;;;18.38;16.48;;;14.40;99.90;;;;;;5102567;28;20386;-88
2023/10/26 10:48:21;;;;;;;16.88;9.57;;;14.60;99.90;;;;;;5096646;28;20135;-89
2023/10/26 10:50:51;;;;;;;15.98;8.65;;;14.60;99.90;;;;;;5099510;27;20122;-88
2023/10/26 10:53:16;;;;;;;19.88;16.48;;;14.50;99.90;;;;;;5104192;27;20059;-88
2023/10/26 10:55:43;;;;;;;16.08;9.95;;;14.50;99.90;;;;;;5089420;27;20059;-89
2023/10/26 10:58:09;;;;;;;16.85;10.27;;;14.40;99.90;;;;;;5087960;27;20032;-89
2023/10/26 11:00:45;;;;;;;18.15;16.33;;;14.30;99.90;;;;;;5106262;28;20096;-88
2023/10/26 11:03:23;;;;;;;18.83;16.83;;;14.40;99.90;;;;;;5087534;28;20044;-89
2023/10/26 11:05:49;;;;;;;18.00;16.10;;;14.50;99.90;;;;;;5089748;28;20036;-89
2023/10/26 11:08:15;;;;;;;14.20;8.40;;;14.60;99.90;;;;;;5088493;27;20036;-89
2023/10/26 11:10:47;;;;;;;17.92;16.10;;;14.70;99.90;;;;;;5107784;27;20565;-89
2023/10/26 11:13:21;;;;;;;16.67;10.82;;;14.80;99.90;;;;;;5107025;27;20490;-89
2023/10/26 11:15:47;;;;;;;16.98;10.25;;;15.00;99.90;;;;;;5087299;27;20034;-90
2023/10/26 11:18:13;;;;;;;18.45;12.02;;;15.20;99.90;;;;;;5107203;27;20491;-89
2023/10/26 11:20:41;;;;;;;20.48;12.25;;;15.30;99.90;;;;;;5091013;27;20538;-89
2023/10/26 11:23:09;;;;;;;20.02;17.92;;;15.50;99.90;;;;;;5089503;27;20129;-90
2023/10/26 11:25:35;;;;;;;17.77;15.98;;;15.70;99.90;;;;;;5090658;27;20035;-90
2023/10/26 11:28:01;;;;;;;17.50;15.70;;;15.90;99.90;;;;;;5089012;27;20047;-90
2023/10/26 11:30:26;;;;;;;17.10;11.07;;;16.10;99.90;;;;;;5090368;27;20030;-90
2023/10/26 11:32:52;;;;;;;17.40;15.38;;;16.20;99.90;;;;;;5089108;27;20121;-89
2023/10/26 11:35:18;;;;;;;18.75;16.00;;;16.20;99.90;;;;;;5091403;27;20031;-90
2023/10/26 11:37:44;;;;;;;17.40;15.25;;;16.30;99.90;;;;;;5091282;27;20401;-90
2023/10/26 11:40:11;;;;;;;16.80;15.10;;;16.30;99.90;;;;;;5106573;27;20062;-90
2023/10/26 11:42:53;;;;;;;13.73;8.88;;;16.30;99.90;;;;;;5106829;27;20487;-90
2023/10/26 11:45:21;;;;;;;12.50;7.38;;;16.30;99.90;;;;;;5088794;27;20046;-90
2023/10/26 11:47:51;;;;;;;14.95;11.30;;;16.20;99.90;;;;;;5104358;27;20046;-89
2023/10/26 11:50:18;;;;;;;13.02;8.07;;;16.30;99.90;;;;;;5105795;27;20123;-90
2023/10/26 11:52:43;;;;;;;13.48;12.07;;;16.30;99.90;;;;;;5090449;27;20042;-90
2023/10/26 11:55:10;;;;;;;14.95;12.05;;;16.40;99.90;;;;;;5106048;27;20036;-90
2023/10/26 11:57:36;;;;;;;16.08;14.25;;;16.50;99.90;;;;;;5107120;27;20047;-89
2023/10/26 12:00:05;;;;;;;13.40;12.00;;;16.60;99.90;;;;;;5104802;27;20040;-89
2023/10/26 12:02:32;;;;;;;9.70;5.47;;;16.60;99.90;;;;;;5090042;27;20031;-89
2023/10/26 12:04:59;;;;;;;10.43;8.13;;;16.50;99.90;;;;;;5088383;28;20039;-89
2023/10/26 12:07:25;;;;;;;11.77;9.30;;;16.40;99.90;;;;;;5100650;27;20044;-89
2023/10/26 12:09:50;;;;;;;10.57;6.78;;;16.30;99.90;;;;;;5085713;28;20034;-89
2023/10/26 12:12:16;;;;;;;11.90;9.00;;;16.10;99.90;;;;;;5081863;28;20549;-90
2023/10/26 12:14:43;;;;;;;11.90;9.80;;;16.10;99.90;;;;;;5096571;28;20032;-89
2023/10/26 12:17:09;;;;;;;10.82;6.35;;;16.00;99.90;;;;;;5082646;28;20417;-89
2023/10/26 12:19:35;;;;;;;11.13;6.38;;;16.00;99.90;;;;;;5095357;28;20051;-89
2023/10/26 12:22:00;;;;;;;17.10;9.40;;;16.00;99.90;;;;;;5095284;28;20046;-89
2023/10/26 12:24:26;;;;;;;9.70;5.70;;;16.10;99.90;;;;;;5102261;28;20036;-89
2023/10/26 12:26:58;;;;;;;12.55;9.95;;;16.30;99.90;;;;;;5095672;28;20043;-89
2023/10/26 12:29:24;;;;;;;11.43;9.48;;;16.40;99.90;;;;;;5086588;28;20088;-89